Polarstream — D5BR6 — position and weather

sailwx.info

Track history (hours):
 
Tides and Currents Weather Stations Pressure Air Temp Water Temp Dewpoint Dewpoint Depression Visibility Wind Speed Wind Dir Waves Ship Positions

Polarstream

Last reported at 2018-Jun-17 01:40 UTC. Time now 2018-Jul-17 14:56 UTC.
Position N 09°11' W 079°52'.
Warning: this ship's position is 30 days out of date.

Length 154 m; draft 7.3 m.

Type: Cargo ship. MMSI: 636092399.

Date/timePositionNaut miles runAvg speedWind from/ knotsBaromVisibWave heightAir tempDewpointWater temp
2018-Jun-17 01:40N 09°11' W 079°52'211.5
2018-Jun-17 01:30N 09°12' W 079°54'5 3.1
2018-Jun-16 23:48N 09°17' W 079°55'1 3.9
2018-Jun-16 23:31N 09°18' W 079°55'4 8.2
2018-Jun-16 23:00N 09°22' W 079°55'1 1.3
2018-Jun-16 22:30N 09°23' W 079°55'0 0.1
2018-Jun-16 22:00N 09°23' W 079°55'0 0.0
2018-Jun-16 21:30N 09°23' W 079°55'0 0.1
2018-Jun-16 21:00N 09°23' W 079°55'0 0.1
2018-Jun-16 20:30N 09°23' W 079°55'0 0.1
2018-Jun-16 20:00N 09°23' W 079°55'0 0.1
2018-Jun-16 19:30N 09°23' W 079°55'0 0.0
2018-Jun-16 19:00N 09°23' W 079°55'0 0.0
2018-Jun-16 18:30N 09°23' W 079°55'0 0.0
2018-Jun-16 18:00N 09°23' W 079°55'0 0.0
2018-Jun-16 17:30N 09°23' W 079°55'0 0.0
2018-Jun-16 17:00N 09°23' W 079°55'0 0.0
2018-Jun-16 16:30N 09°23' W 079°55'0 0.1
2018-Jun-16 16:00N 09°23' W 079°55'0 0.0
2018-Jun-16 15:30N 09°23' W 079°55'0 0.1
2018-Jun-16 15:00N 09°23' W 079°55'0 0.1
2018-Jun-16 14:30N 09°23' W 079°55'0 0.1
2018-Jun-16 14:00N 09°23' W 079°55'0 0.0
2018-Jun-16 13:30N 09°23' W 079°55'0 0.0
2018-Jun-16 13:00N 09°23' W 079°55'0 0.0
2018-Jun-16 12:30N 09°23' W 079°55'0 0.0
2018-Jun-16 12:00N 09°23' W 079°55'0 0.0
2018-Jun-16 11:30N 09°23' W 079°55'1 2.0
2018-Jun-16 11:00N 09°24' W 079°55'611.8
2018-Jun-16 10:30N 09°29' W 079°54'611.9
2018-Jun-16 10:00N 09°35' W 079°52'611.9
2018-Jun-16 09:30N 09°41' W 079°50'612.4
2018-Jun-16 09:00N 09°45' W 079°45'  
2018-Jun-11 18:11N 14°43' W 061°22'417.1
2018-Jun-11 17:57N 14°39' W 061°20'815.0
2018-Jun-11 17:27N 14°35' W 061°14'813.4
2018-Jun-11 16:53N 14°35' W 061°06'3 7.2
2018-Jun-11 16:30N 14°35' W 061°03'0 0.1
2018-Jun-11 16:00N 14°35' W 061°03'0 0.0
2018-Jun-11 15:30N 14°35' W 061°03'0 0.0
2018-Jun-11 15:00N 14°35' W 061°03'0 0.0
2018-Jun-11 14:30N 14°35' W 061°03'0 0.0
2018-Jun-11 14:00N 14°35' W 061°03'0 0.0
2018-Jun-11 13:30N 14°35' W 061°03'0 0.0
2018-Jun-11 13:00N 14°35' W 061°03'0 0.0
2018-Jun-11 12:30N 14°35' W 061°03'0 0.0
2018-Jun-11 12:00N 14°35' W 061°03'0 0.0
2018-Jun-11 11:30N 14°35' W 061°03'0 0.0
2018-Jun-11 11:00N 14°35' W 061°03'2 4.0
2018-Jun-11 10:30N 14°35' W 061°05'0 0.9
2018-Jun-11 10:00N 14°35' W 061°06'2 4.1
2018-Jun-11 09:30N 14°35' W 061°08'0 0.9
2018-Jun-11 09:01N 14°35' W 061°08'2 3.7
2018-Jun-11 08:30N 14°35' W 061°10'5 9.8
2018-Jun-11 08:00N 14°35' W 061°15'612.6
2018-Jun-11 07:30N 14°39' W 061°20'  
Track history (hours):
 
Tides and Currents Weather Stations Pressure Air Temp Water Temp Dewpoint Dewpoint Depression Visibility Wind Speed Wind Dir Waves Ship Positions

Polarstream

Last reported at 2018-Jun-17 01:40 UTC. Time now 2018-Jul-17 14:56 UTC.
Position N 09°11' W 079°52'.
Warning: this ship's position is 30 days out of date.

Length 154 m; draft 7.3 m.

Type: Cargo ship. MMSI: 636092399.

Date/timePositionNaut miles runAvg speedWind from/ knotsBaromVisibWave heightAir tempDewpointWater temp
2018-Jun-17 01:40N 09°11' W 079°52'211.5
2018-Jun-17 01:30N 09°12' W 079°54'5 3.1
2018-Jun-16 23:48N 09°17' W 079°55'1 3.9
2018-Jun-16 23:31N 09°18' W 079°55'4 8.2
2018-Jun-16 23:00N 09°22' W 079°55'1 1.3
2018-Jun-16 22:30N 09°23' W 079°55'0 0.1
2018-Jun-16 22:00N 09°23' W 079°55'0 0.0
2018-Jun-16 21:30N 09°23' W 079°55'0 0.1
2018-Jun-16 21:00N 09°23' W 079°55'0 0.1
2018-Jun-16 20:30N 09°23' W 079°55'0 0.1
2018-Jun-16 20:00N 09°23' W 079°55'0 0.1
2018-Jun-16 19:30N 09°23' W 079°55'0 0.0
2018-Jun-16 19:00N 09°23' W 079°55'0 0.0
2018-Jun-16 18:30N 09°23' W 079°55'0 0.0
2018-Jun-16 18:00N 09°23' W 079°55'0 0.0
2018-Jun-16 17:30N 09°23' W 079°55'0 0.0
2018-Jun-16 17:00N 09°23' W 079°55'0 0.0
2018-Jun-16 16:30N 09°23' W 079°55'0 0.1
2018-Jun-16 16:00N 09°23' W 079°55'0 0.0
2018-Jun-16 15:30N 09°23' W 079°55'0 0.1
2018-Jun-16 15:00N 09°23' W 079°55'0 0.1
2018-Jun-16 14:30N 09°23' W 079°55'0 0.1
2018-Jun-16 14:00N 09°23' W 079°55'0 0.0
2018-Jun-16 13:30N 09°23' W 079°55'0 0.0
2018-Jun-16 13:00N 09°23' W 079°55'0 0.0
2018-Jun-16 12:30N 09°23' W 079°55'0 0.0
2018-Jun-16 12:00N 09°23' W 079°55'0 0.0
2018-Jun-16 11:30N 09°23' W 079°55'1 2.0
2018-Jun-16 11:00N 09°24' W 079°55'611.8
2018-Jun-16 10:30N 09°29' W 079°54'611.9
2018-Jun-16 10:00N 09°35' W 079°52'611.9
2018-Jun-16 09:30N 09°41' W 079°50'612.4
2018-Jun-16 09:00N 09°45' W 079°45'  
2018-Jun-11 18:11N 14°43' W 061°22'417.1
2018-Jun-11 17:57N 14°39' W 061°20'815.0
2018-Jun-11 17:27N 14°35' W 061°14'813.4
2018-Jun-11 16:53N 14°35' W 061°06'3 7.2
2018-Jun-11 16:30N 14°35' W 061°03'0 0.1
2018-Jun-11 16:00N 14°35' W 061°03'0 0.0
2018-Jun-11 15:30N 14°35' W 061°03'0 0.0
2018-Jun-11 15:00N 14°35' W 061°03'0 0.0
2018-Jun-11 14:30N 14°35' W 061°03'0 0.0
2018-Jun-11 14:00N 14°35' W 061°03'0 0.0
2018-Jun-11 13:30N 14°35' W 061°03'0 0.0
2018-Jun-11 13:00N 14°35' W 061°03'0 0.0
2018-Jun-11 12:30N 14°35' W 061°03'0 0.0
2018-Jun-11 12:00N 14°35' W 061°03'0 0.0
2018-Jun-11 11:30N 14°35' W 061°03'0 0.0
2018-Jun-11 11:00N 14°35' W 061°03'2 4.0
2018-Jun-11 10:30N 14°35' W 061°05'0 0.9
2018-Jun-11 10:00N 14°35' W 061°06'2 4.1
2018-Jun-11 09:30N 14°35' W 061°08'0 0.9
2018-Jun-11 09:01N 14°35' W 061°08'2 3.7
2018-Jun-11 08:30N 14°35' W 061°10'5 9.8
2018-Jun-11 08:00N 14°35' W 061°15'612.6
2018-Jun-11 07:30N 14°39' W 061°20'  

Dump ship's entire track history